createdAt,value
2023-02-22T00:00:54.606Z,6.33
2023-02-22T00:04:12.766Z,6.29
2023-02-22T00:07:29.006Z,6.36
2023-02-22T00:10:45.590Z,6.37
2023-02-22T00:14:03.291Z,6.35
2023-02-22T00:17:21.276Z,6.34
2023-02-22T00:20:39.666Z,6.31
2023-02-22T00:23:57.540Z,6.25
2023-02-22T00:27:13.378Z,6.25
2023-02-22T00:30:34.464Z,6.27
2023-02-22T00:33:51.112Z,6.28
2023-02-22T00:37:07.678Z,6.32
2023-02-22T00:40:28.093Z,6.32
2023-02-22T00:43:44.745Z,6.29
2023-02-22T00:47:00.849Z,6.28
2023-02-22T00:50:18.829Z,6.27
2023-02-22T00:53:35.787Z,6.27
2023-02-22T00:56:51.851Z,6.29
2023-02-22T01:00:11.334Z,6.28
2023-02-22T01:03:28.911Z,6.27
2023-02-22T01:06:45.418Z,6.21
2023-02-22T01:10:03.039Z,6.21
2023-02-22T01:13:20.701Z,6.21
2023-02-22T01:16:36.739Z,6.21
2023-02-22T01:19:54.004Z,6.21
2023-02-22T01:26:39.105Z,6.19
2023-02-22T01:29:57.786Z,6.08
2023-02-22T01:33:17.332Z,6.10
2023-02-22T01:36:33.363Z,6.19
2023-02-22T01:43:10.084Z,6.23
2023-02-22T01:46:35.341Z,6.21
2023-02-22T01:49:54.986Z,6.20
2023-02-22T01:57:40.434Z,6.09
2023-02-22T02:00:56.635Z,6.08
2023-02-22T02:04:17.719Z,6.10
2023-02-22T02:07:34.604Z,6.08
2023-02-22T02:10:51.908Z,6.12
2023-02-22T02:14:09.273Z,6.09
2023-02-22T02:17:28.499Z,6.05
2023-02-22T02:20:51.729Z,6.03
2023-02-22T02:24:50.671Z,5.94
2023-02-22T02:29:03.864Z,5.95
2023-02-22T02:32:50.879Z,5.89
2023-02-22T02:36:12.910Z,5.77
2023-02-22T02:42:48.386Z,5.80
2023-02-22T02:46:09.989Z,5.76
2023-02-22T02:49:33.214Z,5.80
2023-02-22T02:52:52.608Z,5.80
2023-02-22T02:56:10.259Z,5.82
2023-02-22T02:59:43.511Z,5.77
2023-02-22T03:03:13.530Z,5.79
2023-02-22T03:06:56.543Z,5.82
2023-02-22T03:10:31.003Z,5.84
2023-02-22T03:13:56.036Z,5.85
2023-02-22T03:17:19.884Z,5.89
2023-02-22T03:20:44.330Z,5.88
2023-02-22T03:24:08.594Z,5.87
2023-02-22T03:27:28.871Z,5.86
2023-02-22T03:30:50.303Z,5.92
2023-02-22T03:34:10.423Z,5.94
2023-02-22T03:37:30.870Z,5.93
2023-02-22T03:40:51.838Z,5.91
2023-02-22T03:44:12.136Z,5.85
2023-02-22T03:47:34.170Z,5.83
2023-02-22T03:50:52.223Z,5.75
2023-02-22T03:54:09.443Z,5.75
2023-02-22T03:57:30.502Z,5.76
2023-02-22T04:00:48.495Z,5.69
2023-02-22T04:04:04.543Z,5.67
2023-02-22T04:07:21.427Z,5.64
2023-02-22T04:10:49.964Z,5.63
2023-02-22T04:14:07.733Z,5.57
2023-02-22T04:17:23.803Z,5.62
2023-02-22T04:20:40.239Z,5.60
2023-02-22T04:24:00.784Z,5.64
2023-02-22T04:27:16.771Z,5.62
2023-02-22T04:30:33.549Z,5.62
2023-02-22T04:33:51.192Z,5.60
2023-02-22T04:37:08.979Z,5.65
2023-02-22T04:40:26.780Z,5.54
2023-02-22T04:43:42.894Z,5.54
2023-02-22T04:47:04.461Z,5.56
2023-02-22T04:50:21.946Z,5.52
2023-02-22T04:53:37.986Z,5.52
2023-02-22T04:56:54.408Z,5.44
2023-02-22T05:00:12.563Z,5.35
2023-02-22T05:03:28.730Z,5.34
2023-02-22T05:06:44.785Z,5.25
2023-02-22T05:10:02.823Z,5.29
2023-02-22T05:13:19.181Z,5.30
2023-02-22T05:16:36.636Z,5.30
2023-02-22T05:19:53.007Z,5.30
2023-02-22T05:23:10.979Z,5.26
2023-02-22T05:26:27.253Z,5.25
2023-02-22T05:29:43.267Z,5.22
2023-02-22T05:33:00.119Z,5.18
2023-02-22T05:36:17.623Z,5.18
2023-02-22T05:42:49.307Z,5.10
2023-02-22T05:46:05.247Z,5.09
2023-02-22T05:49:21.337Z,5.11
2023-02-22T05:52:37.599Z,5.15
2023-02-22T05:55:56.747Z,5.17
2023-02-22T05:59:12.892Z,5.11
2023-02-22T06:02:29.034Z,5.17
2023-02-22T06:05:45.824Z,5.21
2023-02-22T06:09:02.178Z,5.23
2023-02-22T06:12:19.186Z,5.23
2023-02-22T06:15:37.356Z,5.28
2023-02-22T06:18:53.644Z,5.32
2023-02-22T06:22:09.838Z,5.27
2023-02-22T06:25:29.616Z,5.31
2023-02-22T06:28:45.804Z,5.26
2023-02-22T06:32:02.109Z,5.28
2023-02-22T06:35:19.866Z,5.27
2023-02-22T06:38:36.329Z,5.27
2023-02-22T06:41:55.548Z,5.27
2023-02-22T06:45:12.775Z,5.21
2023-02-22T06:48:32.194Z,5.27
2023-02-22T06:51:48.436Z,5.37
2023-02-22T06:55:05.197Z,5.43
2023-02-22T06:58:21.451Z,5.44
2023-02-22T07:01:38.294Z,5.45
2023-02-22T07:04:56.665Z,5.46
2023-02-22T07:08:15.905Z,5.55
2023-02-22T07:14:47.417Z,5.74
2023-02-22T07:18:04.019Z,5.77
2023-02-22T07:21:20.273Z,5.69
2023-02-22T07:27:55.110Z,5.69
2023-02-22T07:31:11.544Z,5.72
2023-02-22T07:34:27.943Z,5.74
2023-02-22T07:37:44.107Z,5.61
2023-02-22T07:41:00.526Z,5.75
2023-02-22T07:44:16.711Z,5.88
2023-02-22T07:47:33.180Z,5.97
2023-02-22T07:50:50.244Z,6.04
2023-02-22T07:54:06.619Z,6.09
2023-02-22T07:57:23.267Z,6.17
2023-02-22T08:00:41.849Z,6.23
2023-02-22T08:03:58.502Z,6.15
2023-02-22T08:07:14.789Z,6.17
2023-02-22T08:10:32.966Z,6.26
2023-02-22T08:13:49.757Z,6.32
2023-02-22T08:17:07.791Z,6.36
2023-02-22T08:20:26.360Z,6.44
2023-02-22T08:23:42.566Z,6.49
2023-02-22T08:26:59.019Z,6.52
2023-02-22T08:30:22.521Z,6.67
2023-02-22T08:33:38.701Z,6.73
2023-02-22T08:36:54.826Z,6.74
2023-02-22T08:40:13.903Z,6.86
2023-02-22T08:43:30.145Z,6.92
2023-02-22T08:46:46.410Z,6.93
2023-02-22T08:50:02.869Z,7.00
2023-02-22T08:53:21.000Z,7.07
2023-02-22T08:56:37.454Z,7.12
2023-02-22T08:59:54.256Z,7.09
2023-02-22T09:03:12.746Z,7.15
2023-02-22T09:06:29.482Z,7.22
2023-02-22T09:09:45.794Z,7.06
2023-02-22T09:13:03.224Z,7.18
2023-02-22T09:16:20.140Z,7.26
2023-02-22T09:19:42.336Z,7.18
2023-02-22T09:23:00.267Z,7.08
2023-02-22T09:26:19.972Z,7.15
2023-02-22T09:29:36.990Z,7.15
2023-02-22T09:32:53.757Z,7.17
2023-02-22T09:36:10.729Z,7.24
2023-02-22T09:46:12.450Z,7.46
2023-02-22T09:49:35.485Z,7.80
2023-02-22T09:52:59.110Z,8.22
2023-02-22T09:56:20.245Z,8.54
2023-02-22T09:59:42.054Z,8.70
2023-02-22T10:03:06.988Z,8.80
2023-02-22T10:06:27.918Z,8.96
2023-02-22T10:09:47.534Z,8.96
2023-02-22T10:13:06.773Z,9.37
2023-02-22T10:16:29.228Z,9.51
2023-02-22T10:19:54.871Z,9.63
2023-02-22T10:23:21.849Z,9.63
2023-02-22T10:26:42.195Z,9.54
2023-02-22T10:30:10.068Z,9.22
2023-02-22T10:33:27.192Z,8.85
2023-02-22T10:36:44.166Z,8.67
2023-02-22T10:43:17.525Z,8.54
2023-02-22T10:46:36.545Z,8.45
2023-02-22T10:49:57.820Z,8.64
2023-02-22T10:53:16.172Z,8.41
2023-02-22T10:56:35.313Z,8.29
2023-02-22T10:59:52.981Z,8.47
2023-02-22T11:03:14.917Z,8.57
2023-02-22T11:06:34.141Z,8.93
2023-02-22T11:10:01.595Z,9.07
2023-02-22T11:13:34.104Z,9.05
2023-02-22T11:16:55.198Z,8.99
2023-02-22T11:20:13.442Z,9.01
2023-02-22T11:23:32.030Z,8.95
2023-02-22T11:30:16.666Z,8.76
2023-02-22T11:33:35.332Z,8.80
2023-02-22T11:36:57.410Z,8.78
2023-02-22T11:43:32.147Z,8.80
2023-02-22T11:46:51.121Z,8.69
2023-02-22T11:50:07.886Z,8.59
2023-02-22T11:53:35.376Z,8.65
2023-02-22T11:56:56.476Z,8.61
2023-02-22T12:00:25.647Z,8.65
2023-02-22T12:04:06.137Z,8.72
2023-02-22T12:07:57.149Z,8.81
2023-02-22T12:14:39.296Z,8.76
2023-02-22T12:18:03.405Z,8.86
2023-02-22T12:21:23.557Z,8.80
2023-02-22T12:24:45.506Z,8.73
2023-02-22T12:28:24.305Z,8.85
2023-02-22T12:31:41.409Z,8.81
2023-02-22T12:35:28.814Z,8.81
2023-02-22T12:38:58.022Z,8.87
2023-02-22T12:43:00.880Z,8.63
2023-02-22T12:46:31.317Z,8.68
2023-02-22T12:50:17.330Z,8.73
2023-02-22T12:53:56.154Z,8.68
2023-02-22T12:57:31.196Z,8.78
2023-02-22T13:00:57.660Z,8.85
2023-02-22T13:04:44.795Z,8.72
2023-02-22T13:08:16.433Z,8.71
2023-02-22T13:11:41.041Z,8.71
2023-02-22T13:15:10.012Z,8.64
2023-02-22T13:18:59.538Z,8.57
2023-02-22T13:22:26.191Z,8.60
2023-02-22T13:26:04.584Z,8.51
2023-02-22T13:29:32.928Z,8.52
2023-02-22T13:33:16.999Z,8.54
2023-02-22T13:36:53.240Z,8.42
2023-02-22T14:03:49.449Z,8.10
2023-02-22T14:07:08.218Z,8.13
2023-02-22T14:10:58.401Z,8.12
2023-02-22T14:14:27.240Z,8.10
2023-02-22T14:17:45.637Z,8.07
2023-02-22T14:21:21.209Z,7.95
2023-02-22T14:24:48.433Z,7.96
2023-02-22T14:28:05.720Z,7.96
2023-02-22T14:31:35.863Z,7.87
2023-02-22T14:35:03.382Z,7.92
2023-02-22T14:38:25.917Z,7.87
2023-02-22T14:41:47.086Z,7.92
2023-02-22T14:45:12.852Z,7.73
2023-02-22T14:49:04.895Z,7.74
2023-02-22T14:52:37.529Z,7.74
2023-02-22T14:55:58.700Z,7.74
2023-02-22T14:59:24.955Z,7.78
2023-02-22T15:02:47.481Z,7.68
2023-02-22T15:06:06.640Z,7.67
2023-02-22T15:09:31.127Z,7.64
2023-02-22T15:12:51.492Z,7.61
2023-02-22T15:16:10.271Z,7.58
2023-02-22T15:19:30.452Z,7.49
2023-02-22T15:22:47.228Z,7.49
2023-02-22T15:26:04.061Z,7.52
2023-02-22T15:29:24.417Z,7.52
2023-02-22T15:33:02.695Z,7.51
2023-02-22T15:36:10.975Z,7.50
2023-02-22T15:39:35.130Z,7.48
2023-02-22T15:42:59.196Z,7.47
2023-02-22T15:46:16.016Z,7.44
2023-02-22T15:49:35.429Z,7.40
2023-02-22T15:52:54.422Z,7.32
2023-02-22T15:56:15.611Z,7.27
2023-02-22T15:59:36.562Z,7.25
2023-02-22T16:02:54.214Z,7.29
2023-02-22T16:06:15.877Z,7.25
2023-02-22T16:09:36.133Z,7.15
2023-02-22T16:12:53.568Z,7.08
2023-02-22T16:16:13.294Z,7.03
2023-02-22T16:19:47.024Z,6.88
2023-02-22T16:23:07.342Z,6.82
2023-02-22T16:26:36.823Z,6.65
2023-02-22T16:30:18.624Z,6.64
2023-02-22T16:33:24.295Z,6.62
2023-02-22T16:36:57.103Z,6.59
2023-02-22T16:40:15.676Z,6.52
2023-02-22T16:43:36.433Z,6.40
2023-02-22T16:46:53.017Z,6.42
2023-02-22T16:50:09.819Z,6.47
2023-02-22T16:53:29.122Z,6.55
2023-02-22T16:56:46.960Z,6.63
2023-02-22T17:00:03.454Z,6.42
2023-02-22T17:04:02.410Z,6.27
2023-02-22T17:07:19.215Z,6.42
2023-02-22T17:10:40.303Z,6.45
2023-02-22T17:14:01.776Z,6.45
2023-02-22T17:17:23.705Z,6.53
2023-02-22T17:20:42.295Z,6.57
2023-02-22T17:23:58.833Z,6.53
2023-02-22T17:27:17.106Z,6.35
2023-02-22T17:30:37.963Z,6.16
2023-02-22T17:33:56.552Z,6.12
2023-02-22T17:37:13.166Z,6.18
2023-02-22T17:40:29.634Z,6.23
2023-02-22T17:43:46.011Z,6.24
2023-02-22T17:47:02.503Z,6.30
2023-02-22T17:50:24.070Z,6.24
2023-02-22T17:53:40.791Z,6.11
2023-02-22T17:56:58.758Z,6.05
2023-02-22T18:00:22.819Z,6.07
2023-02-22T18:03:40.985Z,6.05
2023-02-22T18:06:58.089Z,5.95
2023-02-22T18:10:19.650Z,5.87
2023-02-22T18:13:36.950Z,5.96
2023-02-22T18:16:54.676Z,6.03
2023-02-22T18:20:19.694Z,6.13
2023-02-22T18:23:39.111Z,6.19
2023-02-22T18:26:55.800Z,6.10
2023-02-22T18:30:15.384Z,5.97
2023-02-22T18:33:32.093Z,5.87
2023-02-22T18:36:49.479Z,5.86
2023-02-22T18:40:08.477Z,5.88
2023-02-22T18:43:27.658Z,5.88
2023-02-22T18:46:44.239Z,5.88
2023-02-22T18:50:00.941Z,5.76
2023-02-22T18:53:19.209Z,5.66
2023-02-22T18:56:37.355Z,5.60
2023-02-22T18:59:55.748Z,5.51
2023-02-22T19:03:12.564Z,5.54
2023-02-22T19:06:29.782Z,5.56
2023-02-22T19:09:46.766Z,5.54
2023-02-22T19:13:03.528Z,5.45
2023-02-22T19:16:22.285Z,5.40
2023-02-22T19:19:39.957Z,5.28
2023-02-22T19:22:56.862Z,5.27
2023-02-22T19:26:13.851Z,5.19
2023-02-22T19:29:32.320Z,5.26
2023-02-22T19:32:49.477Z,5.23
2023-02-22T19:36:09.392Z,5.16
2023-02-22T19:39:27.858Z,5.23
2023-02-22T19:42:44.190Z,5.19
2023-02-22T19:46:00.494Z,5.17
2023-02-22T19:49:17.287Z,5.11
2023-02-22T19:52:33.786Z,5.07
2023-02-22T19:55:50.482Z,5.06
2023-02-22T19:59:12.517Z,4.99
2023-02-22T20:02:29.234Z,4.89
2023-02-22T20:05:50.476Z,4.80
2023-02-22T20:09:07.934Z,4.57
2023-02-22T20:12:24.300Z,4.13
2023-02-22T20:15:41.027Z,3.85
2023-02-22T20:18:58.268Z,3.65
2023-02-22T20:22:14.677Z,3.45
2023-02-22T20:25:31.145Z,3.27
2023-02-22T20:28:47.612Z,3.16
2023-02-22T20:32:04.319Z,3.08
2023-02-22T20:35:21.081Z,3.18
2023-02-22T20:38:37.335Z,3.31
2023-02-22T20:41:55.335Z,3.37
2023-02-22T20:45:12.390Z,3.35
2023-02-22T20:48:28.787Z,3.33
2023-02-22T20:51:45.649Z,3.30
2023-02-22T20:55:03.839Z,3.28
2023-02-22T20:58:20.772Z,3.16
2023-02-22T21:01:38.879Z,3.11
2023-02-22T21:04:55.738Z,3.10
2023-02-22T21:08:12.985Z,3.06
2023-02-22T21:11:32.794Z,3.04
2023-02-22T21:14:50.043Z,3.02
2023-02-22T21:18:06.238Z,2.95
2023-02-22T21:21:22.879Z,2.90
2023-02-22T21:24:39.386Z,2.93
2023-02-22T21:27:56.010Z,2.86
2023-02-22T21:31:17.588Z,2.84
2023-02-22T21:34:34.333Z,2.81
2023-02-22T21:37:50.442Z,2.83
2023-02-22T21:41:06.697Z,2.77
2023-02-22T21:44:24.873Z,2.74
2023-02-22T21:47:41.147Z,2.72
2023-02-22T21:50:57.531Z,2.68
2023-02-22T21:54:17.543Z,2.58
2023-02-22T21:57:33.954Z,2.54
2023-02-22T22:00:50.267Z,2.50
2023-02-22T22:04:10.493Z,2.49
2023-02-22T22:07:26.621Z,2.52
2023-02-22T22:10:43.836Z,2.50
2023-02-22T22:14:01.945Z,2.47
2023-02-22T22:17:18.875Z,2.46
2023-02-22T22:20:36.965Z,2.42
2023-02-22T22:23:55.070Z,2.37
2023-02-22T22:27:13.109Z,2.33
2023-02-22T22:30:31.300Z,2.29
2023-02-22T22:33:49.479Z,2.29
2023-02-22T22:37:05.781Z,2.24
2023-02-22T22:40:25.997Z,2.23
2023-02-22T22:43:44.626Z,2.18
2023-02-22T22:47:00.913Z,2.10
2023-02-22T22:50:25.805Z,2.08
2023-02-22T22:53:44.653Z,2.05
2023-02-22T22:57:00.756Z,1.97
2023-02-22T23:00:33.744Z,1.89
2023-02-22T23:03:53.396Z,1.89
2023-02-22T23:07:10.608Z,1.82
2023-02-22T23:10:27.905Z,1.80
2023-02-22T23:13:44.399Z,1.73
2023-02-22T23:17:04.006Z,1.71
2023-02-22T23:20:19.411Z,1.69
2023-02-22T23:23:35.299Z,1.65
2023-02-22T23:26:53.690Z,1.61
2023-02-22T23:30:11.949Z,1.52
2023-02-22T23:33:28.304Z,1.46
2023-02-22T23:36:47.376Z,1.38
2023-02-22T23:40:05.273Z,1.36
2023-02-22T23:43:21.576Z,1.29
2023-02-22T23:46:38.167Z,1.25
2023-02-22T23:49:55.337Z,1.22
2023-02-22T23:53:13.610Z,1.20
2023-02-22T23:56:32.273Z,1.13
2023-02-22T23:59:48.624Z,1.10
